American Falls, Idaho
Current Conditions -  °F | °C
As of 7:53 AM on Friday 24 Oct 2014 (Local Time) from KPIH Reporting Station
Scattered Clouds Scattered Clouds  
Wind Chill:   Ceiling: Unl
Heat Index:   Visibility: 10mi
Dew Point:   Wind: 6mph
Humidity: 76%   Direction: 80°E
Pressure: 30.15"   Gusts: NA
Location:  42.79°N, 112.85°W
Report Text: KPIH 241353Z 08005KT 10SM SCT100 07/03 A3015 RMK AO2 SLP202 T00670028
Loading
Personal Weather Stations






























Interactive Weather Map
Tropical Storm Tracking
New forecast layout! Learn more

10-Day Weather Forecast

Advertisements
Track Severe Weather on mobile